Katowice, Poland

9:56 PM CEST on April 21, 2015 (GMT +0200)
Siemianowice - Tuwim | | Change Station
CLOSE
Current Station
Personal Weather Station
Location: Siemianowice %u015Al%u0105skie, %U015BL%U0105SKIE
Elevation: 971 ft
Nearby Weather Stations

Elev 971 ft 50.30 °N, 19.02 °E | Updated 12 minutes ago

Clear
Clear
54.9 °F
Feels Like 54.9 °F
N
2.0
Wind Variable Wind from NNE
Gusts 3.6 mph

Today
High -- | Low -- °F
--% Chance of Precip.
Yesterday
High -- | Low -- °F
Precip. -- in
5:39 AM 7:46 PM
Waxing Crescent, 12% visible
Pressure 30.09 in
Visibility -9999.0 miles
Clouds
Dew Point -5 °F
Humidity 8%
Rainfall 0.00 in
Snow Depth Not available.
UV Not available.
Pollen Not available.
Air Quality Not available.
Flu Activity Not available.
METAR EPKT 211930Z 34010KT CAVOK 11/M02 Q1019

More Conditions Fewer Conditions

Pressure 30.09 in
Visibility -9999.0 miles
Clouds
Dew Point -5 °F
Humidity 8%
Rainfall 0.00 in
Snow Depth Not available.
UV Not available.
Pollen Not available.
Air Quality Not available.
Flu Activity Not available.
METAR EPKT 211930Z 34010KT CAVOK 11/M02 Q1019

More Conditions Fewer Conditions

10-Day Weather Forecast

Almanac

Astronomy

Apr. 21, 2015 Rise Set
Actual Time
Civil Twilight
Nautical Twilight
Astronomical Twilight
Moon
Length of Visible Light
Length of Day
Tomorrow will be .
, % of the Moon is Illuminated

Today's Extremes

Country Highs Country Lows

Community

WunderPhotos

Upload Photos

1,815,523 photos uploaded!

WunderBlogs® & News

Nearby

Air Quality

  Air Quality AQ Index Pollutant
Not available.

Snow Depth

Station Depth Elevation

Earthquake Activity

City Distance Mag. Time & Date
Minimum magnitude displayed is 2.5.

Coastal Water Temperatures

Place Temperature

Stations

Nearby Weather Stations

Station Location Temp. Windchill Dew Point Humidity Wind Precip. Elev Updated Type